createdAt,value
2022-07-27T00:01:44.413Z,100023.44
2022-07-27T00:04:18.223Z,100014.53
2022-07-27T00:06:44.891Z,100022.56
2022-07-27T00:09:12.108Z,100020.19
2022-07-27T00:11:39.052Z,100030.44
2022-07-27T00:14:05.835Z,100034.34
2022-07-27T00:16:32.741Z,100026.53
2022-07-27T00:18:59.955Z,100033.84
2022-07-27T00:21:26.846Z,100027.75
2022-07-27T00:23:54.605Z,100033.13
2022-07-27T00:26:21.566Z,100037.59
2022-07-27T00:28:49.033Z,100037.50
2022-07-27T00:31:16.352Z,100044.94
2022-07-27T00:33:43.225Z,100041.63
2022-07-27T00:36:10.865Z,100035.75
2022-07-27T00:38:37.547Z,100053.81
2022-07-27T00:41:04.514Z,100044.28
2022-07-27T00:43:31.192Z,100052.19
2022-07-27T00:45:57.861Z,100060.25
2022-07-27T00:48:24.467Z,100055.97
2022-07-27T00:50:54.964Z,100044.53
2022-07-27T00:53:21.680Z,100055.97
2022-07-27T00:55:48.383Z,100060.38
2022-07-27T00:58:15.555Z,100055.97
2022-07-27T01:00:42.168Z,100054.28
2022-07-27T01:03:09.786Z,100045.47
2022-07-27T01:05:42.558Z,100053.66
2022-07-27T01:08:12.777Z,100048.97
2022-07-27T01:10:40.992Z,100056.41
2022-07-27T01:13:12.708Z,100064.66
2022-07-27T01:15:40.997Z,100052.38
2022-07-27T01:18:32.211Z,100061.13
2022-07-27T01:21:00.951Z,100061.50
2022-07-27T01:23:28.532Z,100060.75
2022-07-27T01:25:55.727Z,100067.31
2022-07-27T01:28:22.475Z,100074.59
2022-07-27T01:30:49.233Z,100075.69
2022-07-27T01:33:15.904Z,100071.41
2022-07-27T01:35:42.669Z,100069.81
2022-07-27T01:38:11.108Z,100059.22
2022-07-27T01:40:39.772Z,100063.72
2022-07-27T01:43:06.917Z,100064.69
2022-07-27T01:45:33.693Z,100066.50
2022-07-27T01:48:00.440Z,100070.88
2022-07-27T01:50:27.741Z,100070.38
2022-07-27T01:52:54.350Z,100062.81
2022-07-27T01:55:21.167Z,100066.56
2022-07-27T01:57:47.788Z,100059.63
2022-07-27T02:00:14.829Z,100069.34
2022-07-27T02:02:41.591Z,100063.25
2022-07-27T02:05:12.254Z,100064.41
2022-07-27T02:07:42.216Z,100061.00
2022-07-27T02:10:10.280Z,100068.91
2022-07-27T02:12:37.807Z,100075.78
2022-07-27T02:15:06.237Z,100078.94
2022-07-27T02:17:33.073Z,100080.97
2022-07-27T02:20:02.380Z,100076.69
2022-07-27T02:22:29.101Z,100078.63
2022-07-27T02:24:55.788Z,100080.22
2022-07-27T02:27:22.643Z,100073.03
2022-07-27T02:29:49.410Z,100075.38
2022-07-27T02:32:16.480Z,100068.22
2022-07-27T02:34:43.389Z,100077.31
2022-07-27T02:37:10.056Z,100080.00
2022-07-27T02:39:36.691Z,100085.22
2022-07-27T02:42:03.783Z,100083.53
2022-07-27T02:44:30.524Z,100091.78
2022-07-27T02:46:57.303Z,100089.44
2022-07-27T02:49:24.058Z,100089.53
2022-07-27T02:51:54.397Z,100094.69
2022-07-27T02:54:25.334Z,100092.53
2022-07-27T02:56:53.486Z,100096.41
2022-07-27T02:59:21.690Z,100087.63
2022-07-27T03:01:49.236Z,100098.34
2022-07-27T03:04:16.237Z,100091.28
2022-07-27T03:06:43.469Z,100100.78
2022-07-27T03:09:10.685Z,100096.28
2022-07-27T03:11:38.324Z,100096.78
2022-07-27T03:14:04.980Z,100100.88
2022-07-27T03:16:31.608Z,100102.34
2022-07-27T03:18:58.294Z,100101.63
2022-07-27T03:21:25.202Z,100098.94
2022-07-27T03:23:52.006Z,100098.81
2022-07-27T03:26:19.311Z,100108.56
2022-07-27T03:28:45.933Z,100105.03
2022-07-27T03:31:12.929Z,100114.78
2022-07-27T03:33:39.662Z,100111.22
2022-07-27T03:36:07.388Z,100106.97
2022-07-27T03:38:34.162Z,100105.38
2022-07-27T03:41:01.272Z,100107.50
2022-07-27T03:43:27.918Z,100116.84
2022-07-27T03:45:54.629Z,100115.38
2022-07-27T03:48:21.302Z,100121.66
2022-07-27T03:50:47.984Z,100120.50
2022-07-27T03:53:14.990Z,100123.56
2022-07-27T03:55:41.595Z,100120.59
2022-07-27T03:58:08.205Z,100125.19
2022-07-27T04:00:35.000Z,100125.41
2022-07-27T04:03:01.800Z,100124.66
2022-07-27T04:05:29.407Z,100127.66
2022-07-27T04:07:56.597Z,100130.25
2022-07-27T04:10:27.709Z,100123.69
2022-07-27T04:12:58.657Z,100124.25
2022-07-27T04:15:26.229Z,100127.84
2022-07-27T04:17:56.946Z,100134.06
2022-07-27T04:20:25.561Z,100138.34
2022-07-27T04:22:52.289Z,100140.19
2022-07-27T04:25:18.955Z,100140.41
2022-07-27T04:27:45.690Z,100144.78
2022-07-27T04:30:12.985Z,100151.09
2022-07-27T04:32:39.674Z,100150.03
2022-07-27T04:35:08.076Z,100156.13
2022-07-27T04:37:35.225Z,100154.19
2022-07-27T04:40:02.046Z,100158.59
2022-07-27T04:42:30.124Z,100158.38
2022-07-27T04:44:57.585Z,100151.84
2022-07-27T04:47:24.228Z,100154.44
2022-07-27T04:49:50.956Z,100160.66
2022-07-27T04:52:17.677Z,100159.56
2022-07-27T04:54:45.528Z,100149.06
2022-07-27T04:57:12.268Z,100159.97
2022-07-27T04:59:38.904Z,100159.34
2022-07-27T05:02:05.592Z,100167.59
2022-07-27T05:04:32.270Z,100168.44
2022-07-27T05:06:59.101Z,100170.06
2022-07-27T05:09:25.787Z,100175.19
2022-07-27T05:11:52.552Z,100175.94
2022-07-27T05:14:21.520Z,100172.41
2022-07-27T05:16:48.591Z,100175.19
2022-07-27T05:19:15.502Z,100178.19
2022-07-27T05:21:42.416Z,100179.28
2022-07-27T05:24:10.192Z,100179.16
2022-07-27T05:26:37.950Z,100172.72
2022-07-27T05:29:04.707Z,100184.28
2022-07-27T05:31:31.426Z,100182.47
2022-07-27T05:33:58.677Z,100180.75
2022-07-27T05:36:25.891Z,100183.31
2022-07-27T05:38:52.541Z,100194.03
2022-07-27T05:41:26.703Z,100192.31
2022-07-27T05:43:54.649Z,100189.78
2022-07-27T05:46:22.191Z,100189.44
2022-07-27T05:48:49.097Z,100196.22
2022-07-27T05:51:15.905Z,100202.22
2022-07-27T05:53:42.564Z,100209.16
2022-07-27T05:56:09.247Z,100206.59
2022-07-27T05:58:36.174Z,100207.44
2022-07-27T06:01:03.435Z,100216.97
2022-07-27T06:03:30.346Z,100212.16
2022-07-27T06:06:17.045Z,100216.31
2022-07-27T06:08:44.974Z,100219.75
2022-07-27T06:11:11.873Z,100230.69
2022-07-27T06:13:38.594Z,100227.03
2022-07-27T06:16:10.171Z,100230.47
2022-07-27T06:18:37.022Z,100240.94
2022-07-27T06:21:04.849Z,100239.44
2022-07-27T06:23:31.820Z,100248.59
2022-07-27T06:25:58.753Z,100254.94
2022-07-27T06:28:25.540Z,100251.38
2022-07-27T06:30:53.659Z,100257.03
2022-07-27T06:33:31.170Z,100249.84
2022-07-27T06:35:59.526Z,100249.31
2022-07-27T06:38:27.105Z,100253.28
2022-07-27T06:40:55.096Z,100255.94
2022-07-27T06:43:31.340Z,100252.97
2022-07-27T06:45:59.605Z,100252.53
2022-07-27T06:48:26.589Z,100258.88
2022-07-27T06:50:54.088Z,100258.88
2022-07-27T06:53:21.790Z,100269.47
2022-07-27T06:55:49.713Z,100271.16
2022-07-27T06:58:16.567Z,100262.47
2022-07-27T07:00:43.299Z,100273.41
2022-07-27T07:03:10.222Z,100272.22
2022-07-27T07:05:47.145Z,100281.03
2022-07-27T07:08:14.824Z,100270.53
2022-07-27T07:10:43.474Z,100276.53
2022-07-27T07:13:11.073Z,100284.56
2022-07-27T07:15:40.017Z,100281.44
2022-07-27T07:18:07.856Z,100290.75
2022-07-27T07:20:36.002Z,100293.75
2022-07-27T07:23:02.775Z,100298.59
2022-07-27T07:25:30.165Z,100297.31
2022-07-27T07:27:57.243Z,100306.56
2022-07-27T07:30:24.027Z,100304.81
2022-07-27T07:32:50.935Z,100306.31
2022-07-27T07:35:18.192Z,100310.50
2022-07-27T07:37:44.876Z,100317.22
2022-07-27T07:43:04.451Z,100311.22
2022-07-27T07:45:33.782Z,100313.56
2022-07-27T07:48:00.569Z,100318.69
2022-07-27T07:50:28.134Z,100317.41
2022-07-27T07:52:55.362Z,100323.19
2022-07-27T07:55:23.877Z,100329.19
2022-07-27T07:57:51.735Z,100334.97
2022-07-27T08:00:19.307Z,100327.63
2022-07-27T08:02:52.299Z,100337.41
2022-07-27T08:05:20.273Z,100336.44
2022-07-27T08:07:47.841Z,100342.00
2022-07-27T08:10:16.226Z,100338.16
2022-07-27T08:12:45.997Z,100342.44
2022-07-27T08:15:14.299Z,100347.34
2022-07-27T08:17:41.261Z,100354.78
2022-07-27T08:20:09.497Z,100356.06
2022-07-27T08:22:36.260Z,100353.50
2022-07-27T08:25:03.729Z,100370.97
2022-07-27T08:27:30.434Z,100361.28
2022-07-27T08:30:07.912Z,100366.06
2022-07-27T08:32:53.040Z,100366.91
2022-07-27T08:35:20.935Z,100376.34
2022-07-27T08:37:48.070Z,100376.25
2022-07-27T08:43:03.341Z,100386.59
2022-07-27T08:45:32.636Z,100388.66
2022-07-27T08:47:59.602Z,100389.50
2022-07-27T08:50:30.849Z,100390.22
2022-07-27T08:53:03.919Z,100394.69
2022-07-27T08:55:32.509Z,100399.16
2022-07-27T08:58:03.038Z,100407.59
2022-07-27T09:00:30.681Z,100409.19
2022-07-27T09:02:57.831Z,100402.50
2022-07-27T09:05:25.057Z,100415.59
2022-07-27T09:07:54.308Z,100418.91
2022-07-27T09:10:35.357Z,100410.75
2022-07-27T09:13:30.517Z,100416.50
2022-07-27T09:18:47.868Z,100431.41
2022-07-27T09:21:14.465Z,100422.59
2022-07-27T09:23:48.014Z,100422.38
2022-07-27T09:26:34.528Z,100425.88
2022-07-27T09:29:12.812Z,100414.69
2022-07-27T09:31:51.472Z,100413.91
2022-07-27T09:34:31.066Z,100421.34
2022-07-27T09:36:59.066Z,100421.97
2022-07-27T09:39:28.191Z,100417.94
2022-07-27T09:41:56.953Z,100426.25
2022-07-27T09:44:43.372Z,100425.56
2022-07-27T09:47:28.966Z,100425.78
2022-07-27T09:50:18.877Z,100430.06
2022-07-27T09:52:46.489Z,100435.31
2022-07-27T09:55:13.340Z,100448.63
2022-07-27T09:57:57.531Z,100449.09
2022-07-27T10:00:25.387Z,100453.84
2022-07-27T10:02:53.757Z,100454.56
2022-07-27T10:05:22.921Z,100466.75
2022-07-27T10:07:51.784Z,100463.81
2022-07-27T10:10:18.788Z,100471.25
2022-07-27T10:12:50.482Z,100474.66
2022-07-27T10:15:18.818Z,100472.59
2022-07-27T10:17:46.599Z,100462.38
2022-07-27T10:20:17.143Z,100461.16
2022-07-27T10:22:59.749Z,100464.00
2022-07-27T10:25:34.323Z,100475.84
2022-07-27T10:28:17.767Z,100472.94
2022-07-27T10:30:48.105Z,100474.41
2022-07-27T10:33:42.819Z,100482.84
2022-07-27T10:36:18.381Z,100482.25
2022-07-27T10:38:53.350Z,100480.91
2022-07-27T10:41:25.787Z,100487.13
2022-07-27T10:44:17.718Z,100490.56
2022-07-27T10:47:01.016Z,100496.94
2022-07-27T10:49:31.175Z,100481.03
2022-07-27T10:51:59.875Z,100494.84
2022-07-27T10:54:40.150Z,100500.09
2022-07-27T10:57:08.620Z,100501.56
2022-07-27T11:00:07.331Z,100504.66
2022-07-27T11:02:42.889Z,100517.72
2022-07-27T11:05:32.754Z,100516.16
2022-07-27T11:08:35.358Z,100522.63
2022-07-27T11:10:48.244Z,100517.72
2022-07-27T11:13:17.919Z,100528.72
2022-07-27T11:16:25.964Z,100529.56
2022-07-27T11:19:05.176Z,100528.00
2022-07-27T11:21:34.821Z,100527.50
2022-07-27T11:24:04.149Z,100533.16
2022-07-27T11:26:37.324Z,100546.03
2022-07-27T11:29:07.644Z,100543.72
2022-07-27T11:31:54.689Z,100541.47
2022-07-27T11:34:30.550Z,100546.31
2022-07-27T11:37:06.776Z,100551.69
2022-07-27T11:39:59.625Z,100559.25
2022-07-27T11:42:23.660Z,100563.50
2022-07-27T11:44:52.976Z,100567.63
2022-07-27T11:47:21.640Z,100572.16
2022-07-27T11:49:48.361Z,100572.66
2022-07-27T11:52:17.402Z,100560.44
2022-07-27T11:54:44.049Z,100570.75
2022-07-27T11:57:13.892Z,100564.66
2022-07-27T11:59:42.564Z,100570.44
2022-07-27T12:02:14.926Z,100571.81
2022-07-27T12:04:43.999Z,100572.31
2022-07-27T12:07:19.874Z,100577.91
2022-07-27T12:10:17.744Z,100572.53
2022-07-27T12:12:49.423Z,100585.63
2022-07-27T12:18:06.137Z,100589.44
2022-07-27T12:20:36.715Z,100594.59
2022-07-27T12:23:06.658Z,100594.09
2022-07-27T12:25:34.512Z,100591.41
2022-07-27T12:28:11.585Z,100597.16
2022-07-27T12:30:45.220Z,100606.38
2022-07-27T12:33:35.666Z,100598.03
2022-07-27T12:36:06.324Z,100600.09
2022-07-27T12:38:39.795Z,100597.97
2022-07-27T12:41:06.549Z,100607.97
2022-07-27T12:43:33.311Z,100605.50
2022-07-27T12:46:11.380Z,100602.09
2022-07-27T12:48:41.587Z,100598.19
2022-07-27T12:51:09.936Z,100603.38
2022-07-27T12:53:37.953Z,100610.53
2022-07-27T12:56:08.177Z,100608.06
2022-07-27T12:58:36.195Z,100610.75
2022-07-27T13:01:03.352Z,100607.84
2022-07-27T13:03:30.039Z,100612.75
2022-07-27T13:05:56.921Z,100621.91
2022-07-27T13:08:23.806Z,100611.28
2022-07-27T13:10:52.556Z,100607.25
2022-07-27T13:13:24.474Z,100612.38
2022-07-27T13:15:51.467Z,100620.69
2022-07-27T13:18:23.308Z,100623.00
2022-07-27T13:20:50.547Z,100622.75
2022-07-27T13:23:17.335Z,100625.84
2022-07-27T13:25:44.055Z,100634.28
2022-07-27T13:28:13.978Z,100628.91
2022-07-27T13:33:21.156Z,100642.34
2022-07-27T13:35:51.722Z,100657.00
2022-07-27T13:38:28.769Z,100649.28
2022-07-27T13:40:55.705Z,100651.00
2022-07-27T13:43:22.504Z,100650.75
2022-07-27T13:45:49.562Z,100655.19
2022-07-27T13:48:16.710Z,100664.84
2022-07-27T13:50:43.322Z,100661.53
2022-07-27T13:53:10.104Z,100668.25
2022-07-27T13:55:42.251Z,100667.47
2022-07-27T13:58:08.868Z,100668.81
2022-07-27T14:00:38.390Z,100673.72
2022-07-27T14:03:05.500Z,100675.41
2022-07-27T14:05:32.196Z,100683.25
2022-07-27T14:08:01.493Z,100683.47
2022-07-27T14:10:40.047Z,100683.72
2022-07-27T14:13:09.496Z,100679.66
2022-07-27T14:15:55.664Z,100685.50
2022-07-27T14:18:24.849Z,100690.81
2022-07-27T14:20:51.828Z,100695.03
2022-07-27T14:23:18.990Z,100693.09
2022-07-27T14:25:45.599Z,100700.59
2022-07-27T14:28:12.223Z,100709.94
2022-07-27T14:30:39.265Z,100711.31
2022-07-27T14:33:05.937Z,100716.34
2022-07-27T14:35:35.799Z,100715.88
2022-07-27T14:38:06.756Z,100712.97
2022-07-27T14:40:33.453Z,100716.53
2022-07-27T14:43:00.081Z,100719.09
2022-07-27T14:45:44.735Z,100720.91
2022-07-27T14:48:20.381Z,100716.38
2022-07-27T14:50:52.236Z,100725.84
2022-07-27T14:53:18.892Z,100723.16
2022-07-27T14:55:45.701Z,100724.88
2022-07-27T14:58:12.352Z,100736.16
2022-07-27T15:00:40.003Z,100726.13
2022-07-27T15:03:07.404Z,100734.19
2022-07-27T15:05:50.141Z,100739.34
2022-07-27T15:08:20.823Z,100733.34
2022-07-27T15:10:48.523Z,100733.25
2022-07-27T15:13:15.293Z,100738.63
2022-07-27T15:15:42.041Z,100736.88
2022-07-27T15:18:09.042Z,100734.19
2022-07-27T15:20:36.144Z,100734.94
2022-07-27T15:23:06.699Z,100739.34
2022-07-27T15:25:34.004Z,100740.84
2022-07-27T15:28:00.793Z,100737.09
2022-07-27T15:30:27.515Z,100737.72
2022-07-27T15:32:54.121Z,100736.72
2022-07-27T15:35:20.751Z,100739.94
2022-07-27T15:37:53.577Z,100747.25
2022-07-27T15:40:37.115Z,100742.09
2022-07-27T15:43:12.559Z,100748.25
2022-07-27T15:45:41.148Z,100742.88
2022-07-27T15:48:09.712Z,100750.81
2022-07-27T15:50:38.251Z,100748.88
2022-07-27T15:53:05.814Z,100754.38
2022-07-27T15:55:33.053Z,100754.38
2022-07-27T15:57:59.668Z,100757.06
2022-07-27T16:00:26.539Z,100762.56
2022-07-27T16:02:56.080Z,100761.94
2022-07-27T16:05:23.997Z,100764.84
2022-07-27T16:07:50.852Z,100766.56
2022-07-27T16:10:17.546Z,100775.50
2022-07-27T16:12:44.333Z,100775.50
2022-07-27T16:15:11.460Z,100771.72
2022-07-27T16:17:38.073Z,100778.22
2022-07-27T16:20:05.527Z,100767.44
2022-07-27T16:22:34.329Z,100776.25
2022-07-27T16:25:01.036Z,100766.69
2022-07-27T16:27:28.745Z,100775.84
2022-07-27T16:29:55.701Z,100772.44
2022-07-27T16:32:22.357Z,100775.13
2022-07-27T16:34:49.026Z,100775.13
2022-07-27T16:37:15.687Z,100784.09
2022-07-27T16:39:42.931Z,100777.00
2022-07-27T16:42:09.520Z,100773.47
2022-07-27T16:44:38.867Z,100782.53
2022-07-27T16:47:06.968Z,100776.38
2022-07-27T16:49:36.913Z,100779.94
2022-07-27T16:52:05.615Z,100772.72
2022-07-27T16:54:37.113Z,100779.22
2022-07-27T16:57:07.058Z,100783.06
2022-07-27T16:59:33.804Z,100791.28
2022-07-27T17:02:00.506Z,100791.50
2022-07-27T17:04:28.042Z,100787.19
2022-07-27T17:06:54.918Z,100790.34
2022-07-27T17:09:22.905Z,100794.97
2022-07-27T17:11:53.784Z,100804.13
2022-07-27T17:14:21.078Z,100803.47
2022-07-27T17:16:51.699Z,100815.44
2022-07-27T17:19:18.839Z,100819.19
2022-07-27T17:21:45.907Z,100822.97
2022-07-27T17:24:12.540Z,100828.81
2022-07-27T17:26:39.216Z,100826.56
2022-07-27T17:29:05.972Z,100821.72
2022-07-27T17:31:32.773Z,100830.75
2022-07-27T17:33:59.933Z,100830.94
2022-07-27T17:36:26.882Z,100831.19
2022-07-27T17:38:53.536Z,100828.59
2022-07-27T17:41:24.450Z,100826.91
2022-07-27T17:43:52.873Z,100830.53
2022-07-27T17:46:19.765Z,100832.47
2022-07-27T17:48:46.698Z,100838.72
2022-07-27T17:51:13.387Z,100843.13
2022-07-27T17:53:40.074Z,100846.63
2022-07-27T17:56:08.464Z,100846.78
2022-07-27T17:58:35.408Z,100841.25
2022-07-27T18:01:02.026Z,100841.75
2022-07-27T18:03:28.715Z,100851.09
2022-07-27T18:05:55.631Z,100856.06
2022-07-27T18:08:22.552Z,100851.69
2022-07-27T18:10:51.522Z,100866.28
2022-07-27T18:13:18.805Z,100857.34
2022-07-27T18:15:48.643Z,100871.84
2022-07-27T18:18:17.181Z,100857.75
2022-07-27T18:20:44.818Z,100861.28
2022-07-27T18:23:11.522Z,100864.19
2022-07-27T18:25:38.170Z,100881.63
2022-07-27T18:28:05.095Z,100880.00
2022-07-27T18:30:31.803Z,100872.22
2022-07-27T18:32:58.560Z,100874.28
2022-07-27T18:35:25.355Z,100883.16
2022-07-27T18:37:52.011Z,100881.16
2022-07-27T18:40:19.015Z,100883.59
2022-07-27T18:42:46.537Z,100888.16
2022-07-27T18:45:13.216Z,100893.72
2022-07-27T18:47:39.881Z,100893.41
2022-07-27T18:50:07.356Z,100892.16
2022-07-27T18:52:36.967Z,100898.19
2022-07-27T18:55:03.968Z,100902.31
2022-07-27T18:57:30.570Z,100902.34
2022-07-27T18:59:57.156Z,100911.63
2022-07-27T19:02:23.878Z,100903.88
2022-07-27T19:04:50.841Z,100914.06
2022-07-27T19:07:17.562Z,100919.69
2022-07-27T19:09:46.461Z,100918.00
2022-07-27T19:12:13.159Z,100920.00
2022-07-27T19:14:39.925Z,100919.97
2022-07-27T19:17:08.164Z,100924.25
2022-07-27T19:19:41.633Z,100927.66
2022-07-27T19:22:08.355Z,100928.31
2022-07-27T19:24:35.039Z,100926.34
2022-07-27T19:27:01.676Z,100934.25
2022-07-27T19:29:28.317Z,100930.31
2022-07-27T19:31:55.188Z,100929.84
2022-07-27T19:34:21.970Z,100930.22
2022-07-27T19:36:48.692Z,100942.19
2022-07-27T19:39:16.039Z,100934.25
2022-07-27T19:41:42.886Z,100932.63
2022-07-27T19:44:09.749Z,100940.19
2022-07-27T19:46:36.589Z,100943.38
2022-07-27T19:49:03.883Z,100941.25
2022-07-27T19:51:30.732Z,100942.88
2022-07-27T19:53:57.624Z,100939.91
2022-07-27T19:56:24.356Z,100953.56
2022-07-27T19:58:50.971Z,100958.06
2022-07-27T20:01:17.781Z,100959.81
2022-07-27T20:03:52.137Z,100964.09
2022-07-27T20:06:25.374Z,100968.53
2022-07-27T20:08:55.899Z,100966.78
2022-07-27T20:11:22.668Z,100972.94
2022-07-27T20:13:49.323Z,100974.63
2022-07-27T20:16:17.858Z,100973.69
2022-07-27T20:18:44.679Z,100978.09
2022-07-27T20:21:20.206Z,100983.47
2022-07-27T20:23:50.993Z,100977.31
2022-07-27T20:26:17.737Z,100983.84
2022-07-27T20:28:44.457Z,100984.00
2022-07-27T20:31:11.142Z,100990.16
2022-07-27T20:33:37.800Z,100982.97
2022-07-27T20:36:05.078Z,100987.47
2022-07-27T20:38:31.926Z,100990.59
2022-07-27T20:40:59.466Z,100996.34
2022-07-27T20:43:29.276Z,100995.84
2022-07-27T20:45:56.587Z,100994.22
2022-07-27T20:48:23.513Z,101003.44
2022-07-27T20:50:51.365Z,101014.34
2022-07-27T20:53:21.459Z,101005.53
2022-07-27T20:55:48.436Z,101002.16
2022-07-27T20:58:15.219Z,101010.56
2022-07-27T21:00:41.873Z,101006.56
2022-07-27T21:03:08.750Z,101015.91
2022-07-27T21:05:35.429Z,101015.78
2022-07-27T21:08:02.107Z,101018.13
2022-07-27T21:10:28.751Z,101024.94
2022-07-27T21:12:55.414Z,101028.91
2022-07-27T21:15:22.047Z,101038.97
2022-07-27T21:17:48.807Z,101037.31
2022-07-27T21:20:15.615Z,101039.41
2022-07-27T21:22:43.300Z,101032.56
2022-07-27T21:25:10.794Z,101035.41
2022-07-27T21:27:40.567Z,101040.59
2022-07-27T21:30:08.965Z,101044.94
2022-07-27T21:32:35.637Z,101048.47
2022-07-27T21:35:06.953Z,101052.09
2022-07-27T21:37:33.944Z,101055.63
2022-07-27T21:40:00.545Z,101054.94
2022-07-27T21:42:27.872Z,101060.59
2022-07-27T21:44:54.678Z,101063.44
2022-07-27T21:47:21.263Z,101071.63
2022-07-27T21:49:47.864Z,101073.78
2022-07-27T21:52:14.522Z,101078.63
2022-07-27T21:54:41.180Z,101084.47
2022-07-27T21:57:07.835Z,101084.00
2022-07-27T21:59:34.440Z,101085.34
2022-07-27T22:02:01.144Z,101083.91
2022-07-27T22:04:30.143Z,101079.84
2022-07-27T22:06:57.010Z,101087.25
2022-07-27T22:09:23.627Z,101098.38
2022-07-27T22:11:50.336Z,101100.59
2022-07-27T22:14:17.373Z,101097.13
2022-07-27T22:16:44.348Z,101101.59
2022-07-27T22:19:11.162Z,101097.91
2022-07-27T22:21:37.769Z,101103.09
2022-07-27T22:24:04.760Z,101110.06
2022-07-27T22:26:31.437Z,101110.97
2022-07-27T22:28:58.021Z,101104.69
2022-07-27T22:31:24.717Z,101112.69
2022-07-27T22:33:51.735Z,101117.19
2022-07-27T22:36:18.691Z,101113.13
2022-07-27T22:38:45.455Z,101119.88
2022-07-27T22:41:12.122Z,101126.41
2022-07-27T22:43:38.858Z,101131.94
2022-07-27T22:46:06.254Z,101132.94
2022-07-27T22:48:33.126Z,101135.06
2022-07-27T22:50:59.899Z,101138.81
2022-07-27T22:53:26.644Z,101137.19
2022-07-27T22:55:56.942Z,101139.91
2022-07-27T22:58:23.715Z,101144.38
2022-07-27T23:00:51.194Z,101143.53
2022-07-27T23:03:19.436Z,101154.13
2022-07-27T23:05:46.054Z,101157.66
2022-07-27T23:08:12.692Z,101152.31
2022-07-27T23:10:48.521Z,101164.88
2022-07-27T23:13:16.695Z,101161.50
2022-07-27T23:15:44.379Z,101154.53
2022-07-27T23:18:12.074Z,101160.16
2022-07-27T23:20:40.034Z,101169.31
2022-07-27T23:23:14.394Z,101167.72
2022-07-27T23:25:47.482Z,101171.47
2022-07-27T23:28:14.565Z,101177.72
2022-07-27T23:30:45.151Z,101176.00
2022-07-27T23:33:12.020Z,101171.59
2022-07-27T23:35:38.631Z,101180.59
2022-07-27T23:38:05.473Z,101181.81
2022-07-27T23:40:32.127Z,101186.31
2022-07-27T23:42:58.730Z,101189.63
2022-07-27T23:45:26.714Z,101184.00
2022-07-27T23:47:53.698Z,101191.88
2022-07-27T23:50:20.615Z,101189.94
2022-07-27T23:52:48.003Z,101200.56
2022-07-27T23:55:14.864Z,101194.28
2022-07-27T23:57:41.524Z,101192.38
